createdAt,value
2022-08-20T00:00:29.606Z,3.20
2022-08-20T00:03:04.407Z,3.22
2022-08-20T00:05:34.549Z,3.22
2022-08-20T00:08:01.745Z,3.20
2022-08-20T00:10:30.003Z,3.15
2022-08-20T00:12:56.634Z,3.70
2022-08-20T00:15:28.325Z,3.45
2022-08-20T00:17:57.183Z,3.55
2022-08-20T00:20:27.561Z,3.40
2022-08-20T00:22:57.446Z,3.10
2022-08-20T00:25:25.593Z,3.22
2022-08-20T00:27:52.493Z,3.30
2022-08-20T00:30:20.005Z,3.20
2022-08-20T00:32:57.612Z,3.25
2022-08-20T00:35:27.891Z,3.55
2022-08-20T00:37:59.974Z,3.50
2022-08-20T00:40:32.786Z,3.47
2022-08-20T00:43:03.346Z,3.50
2022-08-20T00:45:32.530Z,3.63
2022-08-20T00:47:59.212Z,3.80
2022-08-20T00:50:37.613Z,3.80
2022-08-20T00:53:06.019Z,3.33
2022-08-20T00:55:33.530Z,3.80
2022-08-20T00:58:09.011Z,3.05
2022-08-20T01:00:39.714Z,3.70
2022-08-20T01:03:09.843Z,3.83
2022-08-20T01:05:44.724Z,3.78
2022-08-20T01:08:14.115Z,3.67
2022-08-20T01:10:44.777Z,4.03
2022-08-20T01:13:15.762Z,3.60
2022-08-20T01:15:45.462Z,3.67
2022-08-20T01:18:17.768Z,4.15
2022-08-20T01:20:50.858Z,3.60
2022-08-20T01:23:30.046Z,4.05
2022-08-20T01:26:13.215Z,4.63
2022-08-20T01:28:55.974Z,4.43
2022-08-20T01:31:34.900Z,4.13
2022-08-20T01:34:04.210Z,3.53
2022-08-20T01:36:52.460Z,4.45
2022-08-20T01:39:23.698Z,3.72
2022-08-20T01:42:08.764Z,3.38
2022-08-20T01:44:38.555Z,3.83
2022-08-20T01:47:19.137Z,3.35
2022-08-20T01:49:51.819Z,3.65
2022-08-20T01:52:31.191Z,3.78
2022-08-20T01:54:58.038Z,4.10
2022-08-20T01:57:29.269Z,4.13
2022-08-20T01:59:57.369Z,3.95
2022-08-20T02:02:26.068Z,4.15
2022-08-20T02:04:53.899Z,3.97
2022-08-20T02:07:23.643Z,3.95
2022-08-20T02:09:52.475Z,4.20
2022-08-20T02:12:19.555Z,4.93
2022-08-20T02:14:51.734Z,4.70
2022-08-20T02:17:22.780Z,5.10
2022-08-20T02:19:59.289Z,4.43
2022-08-20T02:22:55.774Z,3.80
2022-08-20T02:25:28.953Z,4.15
2022-08-20T02:28:00.884Z,4.32
2022-08-20T02:30:34.330Z,4.22
2022-08-20T02:33:06.515Z,3.92
2022-08-20T02:35:34.323Z,4.72
2022-08-20T02:38:01.896Z,5.18
2022-08-20T02:40:31.449Z,4.80
2022-08-20T02:43:00.159Z,5.10
2022-08-20T02:45:30.073Z,5.32
2022-08-20T02:47:58.993Z,5.72
2022-08-20T02:50:27.174Z,5.28
2022-08-20T02:52:56.051Z,5.35
2022-08-20T02:55:26.855Z,6.07
2022-08-20T02:57:58.676Z,5.75
2022-08-20T03:00:27.314Z,6.00
2022-08-20T03:02:54.155Z,5.68
2022-08-20T03:05:20.815Z,6.13
2022-08-20T03:07:53.680Z,6.05
2022-08-20T03:10:32.378Z,5.93
2022-08-20T03:13:01.081Z,5.88
2022-08-20T03:15:32.178Z,6.57
2022-08-20T03:18:00.943Z,6.03
2022-08-20T03:20:30.174Z,5.78
2022-08-20T03:22:57.331Z,5.47
2022-08-20T03:25:24.841Z,5.60
2022-08-20T03:27:54.712Z,5.60
2022-08-20T03:30:24.603Z,5.57
2022-08-20T03:32:51.262Z,5.88
2022-08-20T03:35:20.958Z,6.38
2022-08-20T03:37:50.438Z,6.10
2022-08-20T03:40:24.924Z,5.75
2022-08-20T03:42:52.676Z,5.55
2022-08-20T03:45:21.682Z,5.95
2022-08-20T03:47:49.825Z,6.10
2022-08-20T03:50:23.049Z,6.07
2022-08-20T03:52:51.839Z,5.95
2022-08-20T03:55:20.198Z,7.38
2022-08-20T03:57:59.265Z,7.65
2022-08-20T04:00:30.273Z,9.18
2022-08-20T04:02:57.269Z,11.65
2022-08-20T04:05:25.433Z,10.52
2022-08-20T04:07:56.166Z,11.98
2022-08-20T04:10:27.082Z,11.85
2022-08-20T04:12:53.678Z,11.70
2022-08-20T04:15:23.388Z,12.75
2022-08-20T04:17:50.453Z,11.65
2022-08-20T04:20:22.751Z,11.85
2022-08-20T04:22:59.063Z,12.18
2022-08-20T04:25:29.566Z,11.90
2022-08-20T04:28:02.013Z,12.23
2022-08-20T04:30:29.328Z,12.13
2022-08-20T04:32:56.362Z,12.15
2022-08-20T04:35:24.638Z,12.95
2022-08-20T04:38:07.133Z,13.38
2022-08-20T04:40:53.604Z,13.85
2022-08-20T04:43:23.118Z,14.32
2022-08-20T04:45:52.655Z,12.70
2022-08-20T04:48:23.027Z,13.05
2022-08-20T04:50:51.621Z,13.90
2022-08-20T04:53:25.252Z,12.07
2022-08-20T04:55:54.442Z,13.43
2022-08-20T04:58:30.327Z,13.77
2022-08-20T05:01:01.268Z,10.15
2022-08-20T05:03:28.839Z,11.90
2022-08-20T05:05:56.888Z,12.75
2022-08-20T05:08:25.385Z,12.30
2022-08-20T05:10:59.886Z,12.20
2022-08-20T05:13:40.838Z,12.88
2022-08-20T05:16:08.110Z,12.68
2022-08-20T05:18:37.481Z,13.38
2022-08-20T05:21:06.100Z,13.57
2022-08-20T05:23:41.370Z,13.25
2022-08-20T05:26:09.145Z,13.57
2022-08-20T05:28:47.235Z,13.55
2022-08-20T05:31:32.204Z,13.35
2022-08-20T05:34:10.664Z,14.75
2022-08-20T05:36:49.876Z,14.05
2022-08-20T05:39:19.430Z,12.35
2022-08-20T05:41:46.072Z,13.40
2022-08-20T05:44:14.129Z,14.80
2022-08-20T05:46:43.951Z,14.57
2022-08-20T05:49:13.570Z,14.25
2022-08-20T05:51:43.041Z,13.73
2022-08-20T05:54:09.845Z,14.75
2022-08-20T05:56:37.106Z,13.55
2022-08-20T05:59:05.815Z,14.38
2022-08-20T06:01:35.267Z,14.07
2022-08-20T06:04:21.214Z,14.20
2022-08-20T06:06:48.508Z,13.90
2022-08-20T06:09:28.100Z,13.10
2022-08-20T06:12:01.584Z,14.57
2022-08-20T06:14:28.354Z,13.32
2022-08-20T06:16:57.697Z,15.07
2022-08-20T06:19:26.949Z,13.65
2022-08-20T06:21:53.944Z,14.15
2022-08-20T06:24:21.234Z,13.95
2022-08-20T06:26:47.973Z,13.95
2022-08-20T06:29:15.790Z,14.05
2022-08-20T06:31:42.409Z,13.25
2022-08-20T06:34:09.232Z,13.90
2022-08-20T06:36:35.896Z,15.05
2022-08-20T06:39:04.583Z,13.23
2022-08-20T06:41:36.981Z,13.60
2022-08-20T06:44:05.221Z,13.00
2022-08-20T06:46:32.179Z,14.05
2022-08-20T06:48:59.088Z,13.60
2022-08-20T06:51:25.717Z,13.20
2022-08-20T06:53:52.614Z,13.50
2022-08-20T06:56:19.244Z,13.07
2022-08-20T06:58:45.865Z,14.82
2022-08-20T07:01:13.768Z,13.18
2022-08-20T07:03:54.109Z,12.68
2022-08-20T07:06:25.307Z,13.48
2022-08-20T07:08:53.584Z,13.82
2022-08-20T07:11:23.735Z,14.30
2022-08-20T07:13:54.282Z,12.65
2022-08-20T07:16:20.894Z,13.70
2022-08-20T07:18:47.480Z,13.38
2022-08-20T07:21:14.103Z,14.00
2022-08-20T07:23:42.145Z,12.80
2022-08-20T07:26:08.991Z,12.85
2022-08-20T07:28:38.503Z,14.02
2022-08-20T07:31:25.565Z,13.15
2022-08-20T07:33:53.887Z,11.77
2022-08-20T07:36:21.707Z,12.90
2022-08-20T07:38:50.868Z,13.23
2022-08-20T07:41:20.298Z,12.80
2022-08-20T07:43:47.846Z,13.50
2022-08-20T07:46:17.946Z,12.43
2022-08-20T07:48:50.096Z,12.35
2022-08-20T07:51:20.453Z,12.27
2022-08-20T07:53:48.357Z,12.80
2022-08-20T07:56:19.349Z,13.55
2022-08-20T07:58:49.947Z,13.77
2022-08-20T08:01:19.977Z,12.63
2022-08-20T08:03:50.391Z,13.70
2022-08-20T08:06:29.082Z,12.88
2022-08-20T08:09:13.181Z,13.98
2022-08-20T08:11:47.217Z,11.95
2022-08-20T08:14:29.613Z,13.45
2022-08-20T08:16:58.467Z,13.30
2022-08-20T08:19:28.447Z,11.90
2022-08-20T08:21:57.342Z,11.50
2022-08-20T08:24:28.583Z,11.40
2022-08-20T08:26:55.394Z,12.52
2022-08-20T08:29:22.212Z,11.25
2022-08-20T08:31:48.868Z,12.20
2022-08-20T08:34:15.573Z,11.40
2022-08-20T08:36:44.194Z,10.07
2022-08-20T08:39:11.130Z,11.30
2022-08-20T08:41:49.791Z,10.48
2022-08-20T08:44:29.338Z,9.38
2022-08-20T08:47:02.904Z,11.07
2022-08-20T08:49:37.946Z,10.52
2022-08-20T08:52:13.802Z,10.30
2022-08-20T08:54:47.331Z,10.02
2022-08-20T08:59:52.341Z,9.40
2022-08-20T09:02:30.634Z,10.18
2022-08-20T09:05:02.882Z,9.82
2022-08-20T09:07:33.074Z,9.88
2022-08-20T09:10:01.211Z,10.30
2022-08-20T09:12:27.890Z,12.35
2022-08-20T09:14:54.863Z,10.77
2022-08-20T09:17:24.563Z,11.75
2022-08-20T09:19:52.229Z,11.90
2022-08-20T09:22:21.432Z,12.63
2022-08-20T09:24:49.082Z,11.50
2022-08-20T09:27:18.675Z,11.35
2022-08-20T09:29:46.406Z,12.60
2022-08-20T09:32:21.670Z,11.75
2022-08-20T09:34:55.852Z,11.10
2022-08-20T09:37:24.472Z,11.75
2022-08-20T09:39:51.185Z,10.88
2022-08-20T09:42:28.045Z,11.13
2022-08-20T09:44:55.634Z,11.13
2022-08-20T09:47:22.445Z,11.32
2022-08-20T09:49:50.023Z,11.18
2022-08-20T09:52:27.672Z,10.85
2022-08-20T09:54:58.383Z,11.63
2022-08-20T09:57:26.275Z,11.52
2022-08-20T10:00:16.873Z,9.82
2022-08-20T10:02:43.880Z,11.10
2022-08-20T10:05:12.431Z,10.98
2022-08-20T10:07:42.619Z,11.50
2022-08-20T10:10:13.205Z,12.20
2022-08-20T10:12:41.566Z,12.73
2022-08-20T10:15:09.594Z,11.35
2022-08-20T10:17:41.434Z,11.52
2022-08-20T10:20:10.073Z,11.10
2022-08-20T10:22:37.474Z,9.90
2022-08-20T10:25:05.542Z,10.88
2022-08-20T10:27:32.412Z,9.70
2022-08-20T10:30:00.173Z,8.77
2022-08-20T10:32:26.864Z,9.05
2022-08-20T10:34:53.562Z,7.85
2022-08-20T10:37:25.501Z,10.43
2022-08-20T10:39:55.377Z,10.77
2022-08-20T10:42:22.275Z,12.43
2022-08-20T10:44:48.882Z,12.25
2022-08-20T10:47:24.668Z,11.60
2022-08-20T10:49:54.301Z,12.88
2022-08-20T10:52:21.754Z,11.07
2022-08-20T10:54:49.046Z,11.80
2022-08-20T10:57:28.248Z,11.68
2022-08-20T10:59:57.395Z,11.25
2022-08-20T11:02:25.158Z,10.50
2022-08-20T11:04:52.500Z,10.60
2022-08-20T11:07:49.863Z,11.15
2022-08-20T11:10:14.221Z,11.75
2022-08-20T11:12:42.024Z,13.23
2022-08-20T11:15:12.210Z,13.15
2022-08-20T11:17:41.989Z,13.70
2022-08-20T11:20:10.922Z,13.30
2022-08-20T11:22:38.002Z,12.40
2022-08-20T11:25:06.761Z,10.50
2022-08-20T11:27:38.907Z,10.98
2022-08-20T11:30:08.364Z,10.43
2022-08-20T11:32:35.061Z,9.35
2022-08-20T11:35:09.966Z,9.63
2022-08-20T11:37:45.788Z,8.52
2022-08-20T11:40:12.743Z,8.98
2022-08-20T11:42:58.385Z,7.20
2022-08-20T11:45:26.254Z,6.18
2022-08-20T11:47:53.076Z,6.05
2022-08-20T11:50:21.982Z,5.57
2022-08-20T11:52:49.053Z,5.25
2022-08-20T11:55:17.769Z,5.88
2022-08-20T11:57:46.869Z,5.70
2022-08-20T12:00:21.355Z,5.47
2022-08-20T12:02:59.486Z,6.22
2022-08-20T12:05:27.371Z,6.10
2022-08-20T12:07:54.064Z,6.60
2022-08-20T12:10:22.998Z,6.18
2022-08-20T12:12:49.734Z,7.22
2022-08-20T12:15:16.537Z,6.97
2022-08-20T12:17:43.704Z,6.88
2022-08-20T12:20:14.373Z,7.10
2022-08-20T12:22:42.050Z,6.88
2022-08-20T12:25:09.179Z,7.25
2022-08-20T12:27:37.945Z,7.45
2022-08-20T12:30:17.366Z,7.53
2022-08-20T12:32:44.721Z,8.15
2022-08-20T12:35:13.240Z,7.68
2022-08-20T12:37:40.898Z,7.30
2022-08-20T12:40:11.488Z,7.68
2022-08-20T12:42:38.180Z,7.40
2022-08-20T12:45:06.610Z,7.05
2022-08-20T12:47:36.969Z,6.97
2022-08-20T12:50:10.459Z,6.85
2022-08-20T12:52:37.555Z,6.28
2022-08-20T12:55:05.380Z,6.97
2022-08-20T12:57:44.517Z,7.00
2022-08-20T13:00:19.165Z,6.63
2022-08-20T13:02:46.500Z,6.05
2022-08-20T13:05:14.657Z,7.20
2022-08-20T13:07:42.558Z,6.03
2022-08-20T13:10:17.227Z,5.85
2022-08-20T13:12:43.811Z,5.68
2022-08-20T13:15:11.042Z,5.25
2022-08-20T13:17:38.740Z,5.05
2022-08-20T13:20:11.946Z,5.38
2022-08-20T13:22:38.651Z,4.65
2022-08-20T13:25:06.264Z,5.07
2022-08-20T13:27:33.297Z,5.65
2022-08-20T13:29:59.869Z,4.57
2022-08-20T13:32:26.924Z,4.85
2022-08-20T13:34:53.628Z,4.50
2022-08-20T13:37:25.597Z,4.80
2022-08-20T13:39:54.779Z,3.67
2022-08-20T13:42:22.739Z,4.13
2022-08-20T13:44:50.041Z,4.35
2022-08-20T13:47:23.995Z,4.25
2022-08-20T13:50:04.866Z,4.80
2022-08-20T13:52:33.267Z,3.80
2022-08-20T13:55:03.039Z,3.92
2022-08-20T13:57:35.550Z,4.30
2022-08-20T14:00:12.450Z,4.30
2022-08-20T14:02:40.086Z,4.28
2022-08-20T14:05:07.230Z,4.22
2022-08-20T14:07:34.680Z,4.00
2022-08-20T14:10:10.794Z,4.32
2022-08-20T14:12:37.459Z,4.40
2022-08-20T14:15:05.172Z,4.20
2022-08-20T14:17:35.311Z,4.32
2022-08-20T14:20:14.774Z,4.38
2022-08-20T14:22:42.226Z,4.07
2022-08-20T14:25:11.275Z,4.72
2022-08-20T14:27:38.426Z,4.32
2022-08-20T14:30:08.885Z,4.05
2022-08-20T14:32:36.105Z,3.95
2022-08-20T14:35:03.401Z,4.28
2022-08-20T14:37:36.183Z,3.92
2022-08-20T14:40:06.258Z,4.40
2022-08-20T14:42:32.950Z,4.20
2022-08-20T14:45:02.208Z,4.28
2022-08-20T14:47:59.621Z,4.30
2022-08-20T14:50:34.522Z,3.72
2022-08-20T14:53:03.154Z,3.92
2022-08-20T14:55:33.656Z,4.13
2022-08-20T14:58:00.310Z,4.13
2022-08-20T15:00:29.984Z,4.05
2022-08-20T15:02:57.053Z,4.47
2022-08-20T15:05:24.263Z,3.97
2022-08-20T15:07:53.914Z,3.80
2022-08-20T15:10:32.667Z,3.60
2022-08-20T15:13:02.406Z,4.00
2022-08-20T15:15:29.385Z,3.83
2022-08-20T15:18:00.269Z,4.43
2022-08-20T15:20:30.952Z,3.95
2022-08-20T15:22:57.997Z,3.60
2022-08-20T15:25:37.023Z,3.45
2022-08-20T15:28:06.114Z,3.60
2022-08-20T15:30:33.579Z,3.17
2022-08-20T15:33:00.644Z,3.55
2022-08-20T15:35:28.499Z,3.10
2022-08-20T15:37:57.229Z,3.60
2022-08-20T15:40:28.240Z,3.15
2022-08-20T15:42:56.974Z,3.00
2022-08-20T15:45:23.778Z,3.53
2022-08-20T15:47:55.319Z,3.10
2022-08-20T15:50:25.117Z,3.30
2022-08-20T15:52:55.127Z,3.00
2022-08-20T15:55:22.978Z,3.10
2022-08-20T15:58:05.397Z,2.92
2022-08-20T16:00:44.911Z,3.28
2022-08-20T16:03:20.711Z,2.63
2022-08-20T16:06:00.886Z,2.60
2022-08-20T16:08:35.314Z,2.60
2022-08-20T16:11:10.989Z,2.80
2022-08-20T16:13:48.221Z,2.83
2022-08-20T16:16:26.858Z,2.80
2022-08-20T16:18:54.293Z,2.63
2022-08-20T16:21:30.350Z,2.83
2022-08-20T16:23:57.797Z,2.50
2022-08-20T16:26:32.037Z,2.92
2022-08-20T16:29:19.832Z,2.60
2022-08-20T16:31:56.756Z,2.63
2022-08-20T16:34:33.581Z,2.35
2022-08-20T16:37:22.366Z,2.30
2022-08-20T16:39:58.837Z,2.78
2022-08-20T16:42:33.699Z,2.47
2022-08-20T16:45:02.541Z,2.40
2022-08-20T16:47:35.659Z,2.60
2022-08-20T16:50:16.648Z,2.10
2022-08-20T16:52:46.714Z,2.15
2022-08-20T16:55:15.070Z,2.35
2022-08-20T16:57:41.699Z,2.17
2022-08-20T17:00:23.586Z,2.40
2022-08-20T17:02:55.213Z,2.53
2022-08-20T17:05:24.525Z,1.90
2022-08-20T17:07:55.949Z,2.45
2022-08-20T17:10:31.094Z,2.00
2022-08-20T17:13:19.858Z,2.20
2022-08-20T17:16:00.284Z,2.60
2022-08-20T17:18:32.786Z,2.10
2022-08-20T17:23:59.927Z,2.22
2022-08-20T17:26:35.035Z,2.10
2022-08-20T17:29:13.233Z,2.50
2022-08-20T17:31:44.658Z,2.55
2022-08-20T17:34:21.147Z,1.83
2022-08-20T17:36:51.746Z,2.53
2022-08-20T17:39:20.680Z,1.70
2022-08-20T17:41:50.605Z,2.47
2022-08-20T17:44:26.271Z,2.20
2022-08-20T17:46:54.089Z,2.10
2022-08-20T17:49:38.254Z,2.40
2022-08-20T17:52:15.950Z,1.95
2022-08-20T17:54:45.187Z,2.00
2022-08-20T17:57:16.022Z,2.05
2022-08-20T18:00:00.838Z,2.13
2022-08-20T18:02:32.889Z,1.83
2022-08-20T18:04:59.683Z,1.75
2022-08-20T18:07:33.850Z,1.55
2022-08-20T18:10:11.564Z,2.17
2022-08-20T18:12:56.252Z,1.90
2022-08-20T18:15:26.776Z,1.75
2022-08-20T18:18:30.740Z,2.10
2022-08-20T18:21:20.529Z,1.80
2022-08-20T18:23:55.690Z,1.88
2022-08-20T18:26:31.920Z,1.95
2022-08-20T18:29:12.808Z,1.85
2022-08-20T18:31:59.049Z,2.10
2022-08-20T18:34:28.622Z,2.35
2022-08-20T18:37:27.973Z,2.40
2022-08-20T18:40:08.102Z,2.25
2022-08-20T18:42:37.539Z,1.65
2022-08-20T18:45:05.901Z,2.00
2022-08-20T18:47:32.413Z,1.92
2022-08-20T18:50:06.564Z,1.55
2022-08-20T18:52:51.505Z,2.42
2022-08-20T18:56:00.106Z,2.17
2022-08-20T18:58:34.411Z,1.70
2022-08-20T19:01:06.655Z,1.83
2022-08-20T19:03:36.385Z,1.73
2022-08-20T19:06:24.336Z,1.70
2022-08-20T19:08:56.689Z,2.00
2022-08-20T19:14:12.872Z,2.00
2022-08-20T19:16:46.117Z,2.05
2022-08-20T19:19:16.091Z,1.75
2022-08-20T19:21:43.083Z,1.90
2022-08-20T19:24:13.734Z,2.05
2022-08-20T19:26:43.915Z,2.00
2022-08-20T19:29:14.787Z,1.65
2022-08-20T19:31:42.194Z,1.65
2022-08-20T19:34:21.816Z,2.00
2022-08-20T19:37:10.174Z,1.80
2022-08-20T19:39:50.906Z,1.60
2022-08-20T19:42:27.686Z,1.60
2022-08-20T19:45:01.551Z,1.75
2022-08-20T19:47:40.761Z,1.60
2022-08-20T19:50:31.204Z,1.50
2022-08-20T19:53:30.614Z,2.25
2022-08-20T19:56:04.637Z,1.40
2022-08-20T19:58:33.920Z,1.60
2022-08-20T20:01:02.601Z,1.40
2022-08-20T20:03:34.909Z,1.52
2022-08-20T20:06:13.408Z,1.58
2022-08-20T20:08:58.710Z,2.15
2022-08-20T20:11:40.353Z,1.90
2022-08-20T20:14:10.900Z,1.65
2022-08-20T20:16:39.501Z,1.45
2022-08-20T20:19:25.954Z,1.60
2022-08-20T20:22:19.644Z,1.52
2022-08-20T20:25:07.476Z,1.52
2022-08-20T20:27:36.415Z,1.70
2022-08-20T20:30:10.814Z,1.80
2022-08-20T20:32:46.661Z,2.08
2022-08-20T20:35:25.464Z,1.67
2022-08-20T20:38:07.052Z,2.00
2022-08-20T20:40:43.122Z,1.80
2022-08-20T20:43:21.821Z,1.80
2022-08-20T20:46:06.372Z,1.73
2022-08-20T20:48:48.652Z,1.42
2022-08-20T20:51:22.359Z,2.03
2022-08-20T20:53:54.740Z,1.90
2022-08-20T20:56:31.102Z,1.60
2022-08-20T20:59:02.548Z,1.75
2022-08-20T21:01:46.138Z,1.60
2022-08-20T21:04:21.202Z,2.33
2022-08-20T21:06:48.693Z,1.98
2022-08-20T21:09:18.787Z,1.80
2022-08-20T21:11:47.474Z,1.95
2022-08-20T21:14:16.845Z,1.77
2022-08-20T21:16:44.514Z,1.85
2022-08-20T21:19:14.751Z,1.98
2022-08-20T21:21:42.962Z,2.10
2022-08-20T21:24:10.544Z,1.92
2022-08-20T21:26:38.177Z,1.65
2022-08-20T21:29:06.701Z,1.90
2022-08-20T21:31:40.490Z,1.90
2022-08-20T21:34:11.757Z,1.80
2022-08-20T21:36:38.663Z,1.90
2022-08-20T21:39:05.373Z,2.10
2022-08-20T21:41:32.510Z,1.90
2022-08-20T21:44:06.805Z,2.08
2022-08-20T21:46:33.458Z,1.90
2022-08-20T21:49:00.740Z,2.15
2022-08-20T21:51:29.628Z,2.20
2022-08-20T21:53:59.012Z,2.03
2022-08-20T21:56:25.638Z,2.00
2022-08-20T21:58:55.074Z,2.20
2022-08-20T22:01:24.351Z,2.33
2022-08-20T22:03:51.886Z,2.00
2022-08-20T22:06:19.314Z,2.17
2022-08-20T22:08:45.949Z,1.75
2022-08-20T22:11:13.661Z,2.22
2022-08-20T22:13:41.498Z,2.40
2022-08-20T22:16:19.102Z,2.08
2022-08-20T22:18:48.102Z,2.05
2022-08-20T22:21:18.878Z,2.10
2022-08-20T22:23:47.609Z,2.08
2022-08-20T22:26:15.004Z,2.15
2022-08-20T22:28:41.804Z,2.20
2022-08-20T22:31:09.177Z,2.85
2022-08-20T22:33:38.663Z,2.08
2022-08-20T22:36:07.220Z,1.95
2022-08-20T22:38:33.869Z,2.13
2022-08-20T22:41:00.574Z,2.47
2022-08-20T22:43:27.124Z,2.53
2022-08-20T22:45:57.302Z,2.17
2022-08-20T22:48:24.058Z,2.50
2022-08-20T22:50:51.829Z,2.10
2022-08-20T22:53:20.704Z,2.47
2022-08-20T22:55:48.449Z,2.88
2022-08-20T22:58:15.511Z,2.67
2022-08-20T23:00:44.685Z,2.30
2022-08-20T23:03:23.515Z,2.30
2022-08-20T23:06:07.138Z,2.58
2022-08-20T23:08:37.961Z,2.35
2022-08-20T23:11:07.661Z,2.50
2022-08-20T23:13:35.707Z,2.42
2022-08-20T23:16:03.219Z,2.50
2022-08-20T23:18:30.408Z,2.25
2022-08-20T23:20:58.953Z,2.55
2022-08-20T23:23:26.906Z,2.70
2022-08-20T23:25:54.660Z,2.55
2022-08-20T23:28:23.085Z,3.08
2022-08-20T23:30:50.832Z,2.60
2022-08-20T23:33:17.537Z,3.38
2022-08-20T23:35:48.441Z,2.60
2022-08-20T23:38:15.276Z,2.38
2022-08-20T23:40:42.364Z,2.47
2022-08-20T23:43:09.357Z,2.92
2022-08-20T23:45:39.943Z,2.72
2022-08-20T23:48:08.275Z,2.60
2022-08-20T23:50:35.493Z,2.58
2022-08-20T23:53:03.014Z,2.53
2022-08-20T23:55:29.614Z,2.22
2022-08-20T23:57:57.413Z,2.95
